Time;durP1;ratioP1;P1;durP2;ratioP2;P2;SDS_P1;SDS_P2;PMS_P1;PMS_P2;Temp;Humidity;BMP_temperature;BMP_pressure;BME280_temperature;BME280_humidity;BME280_pressure;Samples;Min_cycle;Max_cycle;Signal;HPM_P1;HPM_P2
2023/01/28 00:00:55;;;;;;;35.17;22.40;;;-1.20;99.90;;;;;;5073198;28;20024;-62
2023/01/28 00:03:21;;;;;;;38.15;23.50;;;-1.20;99.90;;;;;;5073382;28;20025;-63
2023/01/28 00:05:46;;;;;;;43.03;22.40;;;-1.20;99.90;;;;;;5072988;28;20056;-63
2023/01/28 00:08:13;;;;;;;42.30;22.77;;;-1.30;99.90;;;;;;5073313;28;20045;-62
2023/01/28 00:10:39;;;;;;;39.08;22.45;;;-1.20;99.90;;;;;;5073005;28;20025;-63
2023/01/28 00:13:06;;;;;;;39.45;22.10;;;-1.20;99.90;;;;;;5073048;28;20056;-62
2023/01/28 00:15:31;;;;;;;39.70;22.05;;;-1.20;99.90;;;;;;5072930;28;20054;-63
2023/01/28 00:17:57;;;;;;;36.83;21.17;;;-1.20;99.90;;;;;;5071685;28;20021;-63
2023/01/28 00:20:23;;;;;;;38.95;22.08;;;-1.20;99.90;;;;;;5074798;28;20056;-63
2023/01/28 00:22:48;;;;;;;44.17;22.45;;;-1.30;99.90;;;;;;5073273;28;20063;-62
2023/01/28 00:25:14;;;;;;;35.65;22.23;;;-1.30;99.90;;;;;;5072880;28;20400;-63
2023/01/28 00:27:40;;;;;;;36.42;21.27;;;-1.30;99.90;;;;;;5072906;28;20085;-63
2023/01/28 00:30:07;;;;;;;37.38;21.75;;;-1.20;99.90;;;;;;5072788;28;20036;-63
2023/01/28 00:32:32;;;;;;;39.22;22.83;;;-1.20;99.90;;;;;;5072727;28;20105;-62
2023/01/28 00:34:58;;;;;;;32.58;20.02;;;-1.30;99.90;;;;;;5072749;28;20419;-64
2023/01/28 00:37:23;;;;;;;38.78;21.17;;;-1.30;99.90;;;;;;5071271;28;20016;-62
2023/01/28 00:39:49;;;;;;;35.85;22.17;;;-1.30;99.90;;;;;;5072529;28;20016;-63
2023/01/28 00:42:15;;;;;;;35.75;21.67;;;-1.30;99.90;;;;;;5072521;28;20066;-63
2023/01/28 00:44:41;;;;;;;42.80;24.52;;;-1.30;99.90;;;;;;5072476;28;20126;-62
2023/01/28 00:47:06;;;;;;;35.10;21.73;;;-1.30;99.90;;;;;;5072241;28;20029;-63
2023/01/28 00:49:32;;;;;;;41.33;21.98;;;-1.30;99.90;;;;;;5072501;28;20021;-63
2023/01/28 00:51:58;;;;;;;37.47;22.40;;;-1.30;99.90;;;;;;5072346;28;20025;-62
2023/01/28 00:54:24;;;;;;;39.40;22.88;;;-1.20;99.90;;;;;;5072260;28;20103;-63
2023/01/28 00:56:49;;;;;;;43.17;23.45;;;-1.20;99.90;;;;;;5072051;28;20078;-63
2023/01/28 00:59:15;;;;;;;37.63;22.55;;;-1.30;99.90;;;;;;5072299;28;20020;-63
2023/01/28 01:01:41;;;;;;;36.78;21.90;;;-1.30;99.90;;;;;;5072311;28;20483;-63
2023/01/28 01:04:07;;;;;;;33.97;20.70;;;-1.30;99.90;;;;;;5071994;28;20024;-63
2023/01/28 01:06:35;;;;;;;37.08;22.30;;;-1.20;99.90;;;;;;5072168;28;20365;-63
2023/01/28 01:09:06;;;;;;;40.90;23.20;;;-1.20;99.90;;;;;;5071742;28;20044;-62
2023/01/28 01:11:31;;;;;;;43.53;24.40;;;-1.30;99.90;;;;;;5072815;28;20025;-63
2023/01/28 01:13:59;;;;;;;41.25;22.02;;;-1.30;99.90;;;;;;5072027;28;20029;-62
2023/01/28 01:16:31;;;;;;;46.00;22.58;;;-1.30;99.90;;;;;;5071564;28;20048;-62
2023/01/28 01:18:58;;;;;;;41.75;21.80;;;-1.30;99.90;;;;;;5071716;28;20020;-64
2023/01/28 01:21:26;;;;;;;35.83;21.77;;;-1.30;99.90;;;;;;5070678;28;20059;-63
2023/01/28 01:23:52;;;;;;;36.88;21.58;;;-1.20;99.90;;;;;;5071560;28;20021;-63
2023/01/28 01:26:18;;;;;;;36.90;21.48;;;-1.20;99.90;;;;;;5071501;28;20028;-62
2023/01/28 01:28:44;;;;;;;39.25;22.75;;;-1.20;99.90;;;;;;5071499;28;20649;-62
2023/01/28 01:31:16;;;;;;;36.53;21.50;;;-1.20;99.90;;;;;;5071653;28;20036;-62
2023/01/28 01:33:43;;;;;;;36.05;22.63;;;-1.20;99.90;;;;;;5071742;28;20116;-64
2023/01/28 01:36:10;;;;;;;41.85;24.77;;;-1.10;99.90;;;;;;5072184;28;20051;-62
2023/01/28 01:38:36;;;;;;;39.38;23.98;;;-1.20;99.90;;;;;;5071652;28;20030;-62
2023/01/28 01:41:04;;;;;;;39.30;22.63;;;-1.10;99.90;;;;;;5071356;28;20032;-62
2023/01/28 01:43:57;;;;;;;46.20;24.38;;;-1.00;99.90;;;;;;5071410;28;20032;-62
2023/01/28 01:46:30;;;;;;;41.55;24.20;;;-1.10;99.90;;;;;;5071478;28;20028;-63
2023/01/28 01:48:57;;;;;;;40.92;23.38;;;-1.10;99.90;;;;;;5071362;28;20063;-61
2023/01/28 01:51:31;;;;;;;32.95;20.90;;;-1.10;99.90;;;;;;5071067;28;20031;-63
2023/01/28 01:53:59;;;;;;;40.90;21.80;;;-1.00;99.90;;;;;;5071366;28;20035;-63
2023/01/28 01:56:31;;;;;;;34.35;21.20;;;-1.00;99.90;;;;;;5071221;28;20025;-63
2023/01/28 01:58:57;;;;;;;37.08;19.55;;;-1.00;99.90;;;;;;5071141;28;20020;-63
2023/01/28 02:01:27;;;;;;;35.88;21.65;;;-1.00;99.90;;;;;;5071405;28;20099;-63
2023/01/28 02:03:59;;;;;;;38.67;21.00;;;-1.00;99.90;;;;;;5071428;28;20033;-63
2023/01/28 02:06:26;;;;;;;41.17;22.45;;;-1.10;99.90;;;;;;5071532;28;20025;-63
2023/01/28 02:08:55;;;;;;;34.30;20.58;;;-1.10;99.90;;;;;;5073283;28;20045;-63
2023/01/28 02:11:23;;;;;;;38.13;20.75;;;-1.10;99.90;;;;;;5075211;28;20465;-63
2023/01/28 02:13:52;;;;;;;35.83;18.27;;;-1.10;99.90;;;;;;5075812;28;20413;-62
2023/01/28 02:16:19;;;;;;;29.13;17.00;;;-1.10;99.90;;;;;;5075491;28;20017;-61
2023/01/28 02:18:44;;;;;;;25.98;16.63;;;-1.00;99.90;;;;;;5074064;28;20062;-63
2023/01/28 02:21:35;;;;;;;26.30;16.67;;;-0.90;99.90;;;;;;5074972;28;20048;-61
2023/01/28 02:24:34;;;;;;;27.80;18.15;;;-0.90;99.90;;;;;;5075018;28;20545;-62
2023/01/28 02:27:46;;;;;;;24.90;15.52;;;-0.90;99.90;;;;;;5075028;28;20021;-62
2023/01/28 02:30:18;;;;;;;22.92;14.55;;;-0.90;99.90;;;;;;5043224;28;20037;-59
2023/01/28 02:32:54;;;;;;;25.27;16.80;;;-0.90;99.90;;;;;;5055063;28;20036;-63
2023/01/28 02:35:23;;;;;;;29.90;16.15;;;-0.90;99.90;;;;;;5055054;28;20025;-61
2023/01/28 02:38:08;;;;;;;24.85;14.90;;;-0.90;99.90;;;;;;5054826;28;20017;-62
2023/01/28 02:43:34;;;;;;;29.13;16.17;;;-0.70;99.90;;;;;;5075072;28;20395;-62
2023/01/28 02:48:53;;;;;;;28.23;16.90;;;-0.70;99.90;;;;;;5074601;28;20044;-63
2023/01/28 02:51:28;;;;;;;30.52;17.35;;;-0.80;99.90;;;;;;5074366;28;20459;-62
2023/01/28 02:54:10;;;;;;;32.08;17.88;;;-0.80;99.90;;;;;;5074458;28;20421;-62
2023/01/28 02:56:51;;;;;;;27.80;17.35;;;-0.80;99.90;;;;;;5073085;28;20025;-63
2023/01/28 02:59:35;;;;;;;27.65;16.40;;;-0.70;99.90;;;;;;5074561;28;20040;-63
2023/01/28 03:02:32;;;;;;;36.30;18.58;;;-0.70;99.90;;;;;;5074145;28;20531;-62
2023/01/28 03:05:19;;;;;;;28.67;16.17;;;-0.70;99.90;;;;;;5074300;28;20494;-62
2023/01/28 03:07:45;;;;;;;27.40;16.55;;;-0.70;99.90;;;;;;5073993;28;20028;-61
2023/01/28 03:10:15;;;;;;;28.13;17.63;;;-0.70;99.90;;;;;;5073888;28;20040;-63
2023/01/28 03:39:07;;;;;;;28.23;17.35;;;-0.80;99.90;;;;;;5073963;28;20379;-63
2023/01/28 03:41:32;;;;;;;27.90;16.27;;;-0.70;99.90;;;;;;5073950;28;20020;-63
2023/01/28 03:46:42;;;;;;;23.92;15.73;;;-0.70;99.90;;;;;;5073741;28;20146;-63
2023/01/28 03:49:08;;;;;;;25.42;16.00;;;-0.70;99.90;;;;;;5073428;28;20032;-62
2023/01/28 03:51:33;;;;;;;27.25;18.15;;;-0.70;99.90;;;;;;5073403;28;20031;-63
2023/01/28 03:53:59;;;;;;;29.08;17.60;;;-0.70;99.90;;;;;;5071755;28;20122;-63
2023/01/28 03:56:27;;;;;;;27.25;16.70;;;-0.70;99.90;;;;;;5072794;28;20367;-63
2023/01/28 03:58:55;;;;;;;27.85;17.52;;;-0.80;99.90;;;;;;5073342;28;20016;-63
2023/01/28 04:01:20;;;;;;;27.10;17.15;;;-0.80;99.90;;;;;;5073211;28;20518;-62
2023/01/28 04:03:46;;;;;;;26.55;17.33;;;-0.80;99.90;;;;;;5072803;28;20108;-63
2023/01/28 04:06:12;;;;;;;27.27;17.00;;;-0.70;99.90;;;;;;5073450;28;20028;-63
2023/01/28 04:08:38;;;;;;;30.67;19.05;;;-0.70;99.90;;;;;;5073123;28;20083;-62
2023/01/28 04:11:25;;;;;;;27.63;18.08;;;-0.70;99.90;;;;;;5073349;28;20036;-63
2023/01/28 04:13:49;;;;;;;31.17;19.45;;;-0.70;99.90;;;;;;5072575;28;20049;-63
2023/01/28 04:16:16;;;;;;;29.65;18.35;;;-0.80;99.90;;;;;;5072719;28;20035;-62
2023/01/28 04:18:43;;;;;;;32.05;17.95;;;-0.70;99.90;;;;;;5073423;28;20017;-62
2023/01/28 04:21:09;;;;;;;29.67;17.83;;;-0.70;99.90;;;;;;5073044;28;20411;-62
2023/01/28 04:23:35;;;;;;;32.45;19.25;;;-0.70;99.90;;;;;;5072995;28;20024;-62
2023/01/28 04:26:00;;;;;;;31.27;19.02;;;-0.80;99.90;;;;;;5073086;28;20502;-63
2023/01/28 04:28:26;;;;;;;33.10;18.60;;;-0.70;99.90;;;;;;5072914;28;20111;-63
2023/01/28 04:30:52;;;;;;;31.90;18.45;;;-0.70;99.90;;;;;;5071983;28;20402;-62
2023/01/28 04:33:17;;;;;;;31.55;17.60;;;-0.70;99.90;;;;;;5072627;28;20077;-63
2023/01/28 04:35:44;;;;;;;34.47;20.30;;;-0.70;99.90;;;;;;5071072;28;20036;-62
2023/01/28 04:38:09;;;;;;;31.95;18.63;;;-0.80;99.90;;;;;;5071621;28;20566;-63
2023/01/28 04:40:35;;;;;;;30.63;18.42;;;-0.70;99.90;;;;;;5071714;28;20021;-63
2023/01/28 04:43:01;;;;;;;28.75;18.33;;;-0.70;99.90;;;;;;5071325;28;20040;-62
2023/01/28 04:45:26;;;;;;;28.38;18.15;;;-0.70;99.90;;;;;;5072236;28;20024;-61
2023/01/28 04:47:52;;;;;;;27.65;17.95;;;-0.70;99.90;;;;;;5071125;28;20060;-63
2023/01/28 04:50:17;;;;;;;27.90;17.67;;;-0.70;99.90;;;;;;5070150;28;20035;-63
2023/01/28 04:52:43;;;;;;;29.63;17.73;;;-0.70;99.90;;;;;;5071498;28;20031;-63
2023/01/28 04:55:10;;;;;;;30.90;17.30;;;-0.70;99.90;;;;;;5071630;28;20024;-63
2023/01/28 04:57:36;;;;;;;32.22;19.15;;;-0.70;99.90;;;;;;5071974;28;20039;-63
2023/01/28 05:00:02;;;;;;;27.13;17.25;;;-0.70;99.90;;;;;;5071692;28;20025;-63
2023/01/28 05:02:28;;;;;;;31.95;19.75;;;-0.60;99.90;;;;;;5072181;28;20058;-63
2023/01/28 05:04:53;;;;;;;27.27;16.77;;;-0.60;99.90;;;;;;5071797;28;20053;-63
2023/01/28 05:07:19;;;;;;;30.02;17.85;;;-0.50;99.90;;;;;;5072364;28;20101;-62
2023/01/28 05:09:45;;;;;;;29.65;17.42;;;-0.60;99.90;;;;;;5071799;28;20044;-63
2023/01/28 05:12:10;;;;;;;25.90;17.17;;;-0.50;99.90;;;;;;5072172;28;20028;-63
2023/01/28 05:14:36;;;;;;;27.50;16.85;;;-0.50;99.90;;;;;;5071658;28;20418;-63
2023/01/28 05:17:01;;;;;;;32.65;17.92;;;-0.50;99.90;;;;;;5071988;28;20025;-62
2023/01/28 05:19:27;;;;;;;25.63;16.90;;;-0.50;99.90;;;;;;5071954;28;20390;-63
2023/01/28 05:21:53;;;;;;;32.28;17.77;;;-0.50;99.90;;;;;;5072168;28;20020;-63
2023/01/28 05:24:20;;;;;;;33.45;21.10;;;-0.50;99.90;;;;;;5071613;28;20032;-63
2023/01/28 05:26:45;;;;;;;33.88;20.23;;;-0.50;99.90;;;;;;5071864;28;20027;-63
2023/01/28 05:29:11;;;;;;;29.15;18.17;;;-0.60;99.90;;;;;;5071657;28;20380;-63
2023/01/28 05:31:37;;;;;;;27.40;18.52;;;-0.60;99.90;;;;;;5071931;28;20158;-61
2023/01/28 05:34:02;;;;;;;30.90;17.75;;;-0.60;99.90;;;;;;5071435;28;20024;-63
2023/01/28 05:36:28;;;;;;;31.90;19.02;;;-0.50;99.90;;;;;;5072570;28;20020;-62
2023/01/28 05:38:53;;;;;;;30.00;20.42;;;-0.60;99.90;;;;;;5071865;28;20025;-62
2023/01/28 05:41:19;;;;;;;33.00;20.33;;;-0.60;99.90;;;;;;5071614;28;20631;-63
2023/01/28 05:43:45;;;;;;;32.15;18.92;;;-0.70;99.90;;;;;;5070843;28;20037;-61
2023/01/28 05:46:10;;;;;;;32.42;17.58;;;-0.70;99.90;;;;;;5072018;28;20058;-63
2023/01/28 05:48:36;;;;;;;34.08;19.67;;;-0.70;99.90;;;;;;5072392;28;20032;-63
2023/01/28 05:51:05;;;;;;;33.92;18.50;;;-0.70;99.90;;;;;;5071409;28;20036;-63
2023/01/28 05:53:31;;;;;;;30.52;19.13;;;-0.70;99.90;;;;;;5072287;28;20494;-63
2023/01/28 05:55:57;;;;;;;32.65;18.80;;;-0.70;99.90;;;;;;5071645;28;20035;-62
2023/01/28 05:58:22;;;;;;;37.22;20.45;;;-0.70;99.90;;;;;;5071341;28;20043;-62
2023/01/28 06:00:48;;;;;;;38.03;19.48;;;-0.70;99.90;;;;;;5071333;28;20033;-62
2023/01/28 06:03:13;;;;;;;35.95;19.88;;;-0.70;99.90;;;;;;5071423;28;20036;-63
2023/01/28 06:05:39;;;;;;;33.47;20.20;;;-0.70;99.90;;;;;;5072147;28;20414;-62
2023/01/28 06:11:46;;;;;;;38.03;21.05;;;-0.80;99.90;;;;;;5039257;28;20640;-63
2023/01/28 06:14:12;;;;;;;32.58;19.02;;;-0.80;99.90;;;;;;5050461;28;20029;-62
2023/01/28 06:16:37;;;;;;;37.83;19.80;;;-0.80;99.90;;;;;;5050799;28;20053;-64
2023/01/28 06:19:03;;;;;;;36.22;21.02;;;-0.80;99.90;;;;;;5050799;28;20033;-60
2023/01/28 06:21:28;;;;;;;34.88;21.48;;;-0.80;99.90;;;;;;5071186;28;20464;-60
2023/01/28 06:23:54;;;;;;;37.40;21.70;;;-0.90;99.90;;;;;;5071432;28;20078;-60
2023/01/28 06:26:20;;;;;;;38.05;21.88;;;-1.00;99.90;;;;;;5071861;28;20035;-60
2023/01/28 06:28:45;;;;;;;31.58;19.77;;;-1.00;99.90;;;;;;5071225;28;20586;-61
2023/01/28 06:31:11;;;;;;;77.63;40.75;;;-1.00;99.90;;;;;;5071329;28;20486;-61
2023/01/28 06:33:37;;;;;;;35.20;21.05;;;-0.90;99.90;;;;;;5070737;28;20028;-60
2023/01/28 06:39:26;;;;;;;63.95;34.95;;;-1.00;99.90;;;;;;5071275;28;20051;-60
2023/01/28 06:41:52;;;;;;;33.83;21.70;;;-1.00;99.90;;;;;;5071530;28;20681;-60
2023/01/28 06:44:17;;;;;;;31.13;19.75;;;-1.10;99.90;;;;;;5072088;28;20028;-60
2023/01/28 06:46:43;;;;;;;37.20;21.13;;;-1.00;99.90;;;;;;5070977;28;20028;-61
2023/01/28 06:49:09;;;;;;;39.95;22.63;;;-1.00;99.90;;;;;;5071250;28;20033;-60
2023/01/28 06:51:34;;;;;;;39.63;22.42;;;-1.00;99.90;;;;;;5051113;28;20448;-60
2023/01/28 06:54:00;;;;;;;51.55;29.35;;;-1.10;99.90;;;;;;5051396;28;20040;-61
2023/01/28 06:56:26;;;;;;;29.77;20.70;;;-1.00;99.90;;;;;;5054752;28;20103;-60
2023/01/28 06:58:51;;;;;;;30.88;18.08;;;-0.90;99.90;;;;;;5054291;28;20025;-61
2023/01/28 07:01:17;;;;;;;31.42;18.80;;;-0.90;99.90;;;;;;5070753;28;20028;-60
2023/01/28 07:03:43;;;;;;;34.50;19.83;;;-0.90;99.90;;;;;;5074565;28;20033;-60
2023/01/28 07:06:08;;;;;;;56.30;31.10;;;-0.90;99.90;;;;;;5074240;28;20024;-61
2023/01/28 07:08:36;;;;;;;52.35;31.00;;;-0.90;99.90;;;;;;5074396;28;20036;-61
2023/01/28 07:11:03;;;;;;;44.50;24.80;;;-0.90;99.90;;;;;;5073585;28;20052;-60
2023/01/28 07:13:29;;;;;;;48.47;25.77;;;-0.90;99.90;;;;;;5074300;28;20051;-61
2023/01/28 07:15:54;;;;;;;43.40;24.65;;;-0.90;99.90;;;;;;5074085;28;20020;-61
2023/01/28 07:18:20;;;;;;;38.33;21.90;;;-0.90;99.90;;;;;;5074627;28;20086;-60
2023/01/28 07:20:45;;;;;;;36.85;22.45;;;-0.90;99.90;;;;;;5073821;28;20638;-55
2023/01/28 07:23:11;;;;;;;32.55;20.60;;;-0.90;99.90;;;;;;5074362;28;20032;-60
2023/01/28 07:25:37;;;;;;;40.13;20.92;;;-0.90;99.90;;;;;;5074150;28;20032;-61
2023/01/28 07:28:04;;;;;;;40.85;22.88;;;-0.90;99.90;;;;;;5073857;28;20705;-60
2023/01/28 07:30:29;;;;;;;34.80;21.75;;;-0.90;99.90;;;;;;5073965;28;20037;-60
2023/01/28 07:32:57;;;;;;;35.13;20.92;;;-0.80;99.90;;;;;;5073356;28;20032;-60
2023/01/28 07:35:23;;;;;;;36.15;22.30;;;-0.80;99.90;;;;;;5073781;28;20391;-61
2023/01/28 07:37:56;;;;;;;42.38;21.73;;;-0.80;99.90;;;;;;5073689;28;20049;-61
2023/01/28 07:40:23;;;;;;;38.33;23.05;;;-0.80;99.90;;;;;;5073940;28;20137;-60
2023/01/28 07:42:49;;;;;;;34.20;19.88;;;-0.80;99.90;;;;;;5073515;28;20044;-60
2023/01/28 07:45:15;;;;;;;36.08;21.45;;;-0.60;99.90;;;;;;5073749;28;20561;-61
2023/01/28 07:47:41;;;;;;;36.80;20.85;;;-0.60;99.90;;;;;;5073815;28;20118;-60
2023/01/28 07:50:08;;;;;;;32.22;20.70;;;-0.60;99.90;;;;;;5073451;28;20029;-60
2023/01/28 07:52:40;;;;;;;33.85;22.08;;;-0.60;99.90;;;;;;5073286;28;20051;-60
2023/01/28 07:55:06;;;;;;;36.53;20.30;;;-0.60;99.90;;;;;;5072918;28;20155;-61
2023/01/28 07:57:32;;;;;;;37.78;22.60;;;-0.70;99.90;;;;;;5073621;28;20094;-61
2023/01/28 07:59:57;;;;;;;66.18;33.92;;;-0.70;99.90;;;;;;5073323;28;20067;-61
2023/01/28 08:02:23;;;;;;;46.05;23.88;;;-0.70;99.90;;;;;;5073211;28;20033;-61
2023/01/28 08:04:49;;;;;;;41.85;21.70;;;-0.70;99.90;;;;;;5073127;28;20028;-61
2023/01/28 08:07:14;;;;;;;42.97;22.33;;;-0.60;99.90;;;;;;5072866;28;20422;-60
2023/01/28 08:09:40;;;;;;;37.53;23.08;;;-0.50;99.90;;;;;;5073115;28;20024;-61
2023/01/28 08:12:06;;;;;;;45.53;26.67;;;-0.40;99.90;;;;;;5072020;28;20114;-62
2023/01/28 08:14:31;;;;;;;97.80;47.00;;;-0.30;99.90;;;;;;5073169;28;20029;-61
2023/01/28 08:16:57;;;;;;;61.25;31.58;;;-0.10;99.90;;;;;;5071760;28;20020;-61
2023/01/28 08:19:22;;;;;;;47.33;27.48;;;-0.10;99.90;;;;;;5072854;28;20363;-60
2023/01/28 08:21:48;;;;;;;94.47;40.60;;;0.00;99.90;;;;;;5072868;28;20032;-62
2023/01/28 08:24:14;;;;;;;38.60;24.40;;;0.10;99.90;;;;;;5072689;28;20029;-62
2023/01/28 08:26:39;;;;;;;33.67;20.73;;;0.20;99.90;;;;;;5072916;28;20093;-62
2023/01/28 08:29:05;;;;;;;38.15;21.00;;;0.30;99.90;;;;;;5072772;28;20094;-62
2023/01/28 08:31:31;;;;;;;41.75;24.55;;;0.40;99.90;;;;;;5071971;28;20379;-61
2023/01/28 08:33:57;;;;;;;35.63;23.98;;;0.60;99.90;;;;;;5072082;28;20029;-62
2023/01/28 08:36:22;;;;;;;41.03;25.13;;;0.60;99.90;;;;;;5072556;28;20031;-61
2023/01/28 08:38:54;;;;;;;38.50;22.83;;;0.60;99.90;;;;;;5072096;28;20457;-61
2023/01/28 08:41:21;;;;;;;45.17;22.60;;;0.60;99.90;;;;;;5072113;28;20038;-60
2023/01/28 08:43:47;;;;;;;36.38;23.17;;;0.70;99.90;;;;;;5072044;28;20671;-62
2023/01/28 08:46:13;;;;;;;33.25;21.73;;;0.80;99.90;;;;;;5072585;28;20115;-61
2023/01/28 08:48:38;;;;;;;34.63;20.13;;;0.80;99.90;;;;;;5071589;28;20686;-62
2023/01/28 08:51:04;;;;;;;39.20;21.95;;;1.10;99.90;;;;;;5071901;28;20056;-61
2023/01/28 08:53:30;;;;;;;34.45;21.05;;;1.30;99.90;;;;;;5071806;28;20071;-62
2023/01/28 08:55:55;;;;;;;31.15;19.92;;;1.40;99.90;;;;;;5072736;28;20029;-61
2023/01/28 08:58:21;;;;;;;35.03;20.92;;;1.40;99.90;;;;;;5072373;28;20024;-61
2023/01/28 09:00:48;;;;;;;31.95;20.90;;;1.40;99.90;;;;;;5072021;28;20470;-61
2023/01/28 09:03:14;;;;;;;34.28;20.73;;;1.40;99.90;;;;;;5072344;28;20107;-62
2023/01/28 09:05:39;;;;;;;32.45;20.13;;;1.50;99.90;;;;;;5070540;28;20742;-61
2023/01/28 09:08:10;;;;;;;33.85;21.52;;;1.50;99.90;;;;;;5071435;28;20111;-61
2023/01/28 09:10:36;;;;;;;37.35;21.80;;;1.50;99.90;;;;;;5071101;28;20032;-61
2023/01/28 09:13:10;;;;;;;37.90;22.55;;;1.50;99.90;;;;;;5071679;28;20045;-61
2023/01/28 09:15:36;;;;;;;38.38;22.38;;;1.40;99.90;;;;;;5071138;28;20032;-61
2023/01/28 09:18:02;;;;;;;47.67;28.27;;;1.20;99.90;;;;;;5070603;28;20028;-61
2023/01/28 09:20:28;;;;;;;39.67;23.73;;;1.30;99.90;;;;;;5070810;28;20079;-61
2023/01/28 09:22:54;;;;;;;34.50;21.60;;;1.30;99.90;;;;;;5070601;28;20681;-61
2023/01/28 09:25:20;;;;;;;40.47;26.15;;;1.30;99.90;;;;;;5069551;28;20154;-61
2023/01/28 09:27:45;;;;;;;40.53;22.83;;;1.40;99.90;;;;;;5069442;28;20021;-61
2023/01/28 09:30:12;;;;;;;36.17;20.98;;;1.40;99.90;;;;;;5069291;28;20067;-61
2023/01/28 09:32:38;;;;;;;31.08;20.95;;;1.50;99.90;;;;;;5068990;28;20028;-60
2023/01/28 09:35:04;;;;;;;39.33;23.00;;;1.60;99.90;;;;;;5068662;28;20047;-61
2023/01/28 09:37:30;;;;;;;39.85;22.92;;;1.60;99.90;;;;;;5069804;28;20021;-60
2023/01/28 09:39:55;;;;;;;39.35;24.30;;;1.60;99.90;;;;;;5070436;28;20086;-61
2023/01/28 09:42:24;;;;;;;40.30;24.15;;;1.60;99.90;;;;;;5071441;28;20032;-61
2023/01/28 09:45:15;;;;;;;33.75;22.63;;;1.60;99.90;;;;;;5071061;28;20390;-61
2023/01/28 09:48:01;;;;;;;36.60;23.55;;;1.60;99.90;;;;;;5071199;28;20043;-60
2023/01/28 09:50:33;;;;;;;40.15;23.83;;;1.70;99.90;;;;;;5070411;28;20119;-61
2023/01/28 09:56:36;;;;;;;35.13;22.48;;;1.90;99.90;;;;;;5064026;28;20040;-61
2023/01/28 09:59:20;;;;;;;40.03;22.75;;;1.90;99.90;;;;;;5071667;28;20017;-60
2023/01/28 10:01:58;;;;;;;38.72;22.88;;;1.80;99.90;;;;;;5056673;28;20028;-61
2023/01/28 10:04:51;;;;;;;39.85;22.85;;;1.80;99.90;;;;;;5069973;28;20031;-61
2023/01/28 10:07:39;;;;;;;43.40;26.60;;;1.90;99.90;;;;;;5070820;28;20020;-61
2023/01/28 10:10:13;;;;;;;37.97;21.95;;;1.70;99.90;;;;;;5068622;28;20286;-61
2023/01/28 10:13:07;;;;;;;36.92;22.42;;;1.70;99.90;;;;;;5052175;28;20413;-60
2023/01/28 10:16:04;;;;;;;36.03;22.10;;;1.50;99.90;;;;;;5065832;28;20051;-62
2023/01/28 10:18:55;;;;;;;39.35;22.52;;;1.40;99.90;;;;;;5060585;28;20442;-61
2023/01/28 10:21:38;;;;;;;45.33;27.63;;;1.50;99.90;;;;;;5070823;28;20068;-60
2023/01/28 10:24:18;;;;;;;40.03;24.67;;;1.40;99.90;;;;;;5066428;28;20032;-61
2023/01/28 10:26:45;;;;;;;39.88;23.45;;;1.60;99.90;;;;;;5062651;28;20021;-62
2023/01/28 10:29:17;;;;;;;37.10;21.13;;;1.50;99.90;;;;;;5072318;28;20021;-60
2023/01/28 10:32:21;;;;;;;37.40;24.30;;;1.50;99.90;;;;;;5074111;28;20035;-58
2023/01/28 10:34:47;;;;;;;38.85;21.83;;;1.60;99.90;;;;;;5073159;28;20047;-61
2023/01/28 10:37:15;;;;;;;55.53;39.22;;;1.40;99.90;;;;;;5073673;28;20479;-61
2023/01/28 10:39:41;;;;;;;42.83;26.92;;;1.40;99.90;;;;;;5074453;28;20036;-61
2023/01/28 10:42:34;;;;;;;37.53;23.27;;;1.40;99.90;;;;;;5072900;28;20029;-61
2023/01/28 10:45:07;;;;;;;41.35;24.75;;;1.50;99.90;;;;;;5071095;28;20037;-62
2023/01/28 10:47:53;;;;;;;;;;;1.50;99.90;;;;;;5074872;28;20150;-62
2023/01/28 10:50:27;;;;;;;33.20;19.65;;;1.50;99.90;;;;;;5089666;28;19904;-61
2023/01/28 10:52:58;;;;;;;37.50;22.17;;;1.50;99.90;;;;;;5074665;28;20031;-61
2023/01/28 10:55:33;;;;;;;38.88;20.33;;;1.40;99.90;;;;;;5074451;28;20024;-62
2023/01/28 10:58:01;;;;;;;42.45;22.27;;;1.30;99.90;;;;;;5074346;28;20426;-62
2023/01/28 11:00:32;;;;;;;34.42;21.40;;;1.20;99.90;;;;;;5074270;28;20028;-61
2023/01/28 11:02:58;;;;;;;36.38;20.83;;;1.20;99.90;;;;;;5073902;28;20052;-62
2023/01/28 11:05:29;;;;;;;43.13;25.38;;;1.20;99.90;;;;;;5072287;28;20039;-62
2023/01/28 11:08:15;;;;;;;41.38;23.92;;;1.10;99.90;;;;;;5066590;28;20111;-62
2023/01/28 11:10:41;;;;;;;35.50;22.38;;;1.20;99.90;;;;;;5073878;28;20024;-61
2023/01/28 11:13:14;;;;;;;39.58;23.40;;;1.50;99.90;;;;;;5074051;28;20507;-60
2023/01/28 11:15:50;;;;;;;38.78;20.88;;;1.50;99.90;;;;;;5074348;28;20418;-60
2023/01/28 11:18:20;;;;;;;38.08;22.25;;;1.50;99.90;;;;;;5074381;28;20083;-60
2023/01/28 11:20:53;;;;;;;37.60;20.85;;;1.60;99.90;;;;;;5073934;28;20021;-61
2023/01/28 11:23:33;;;;;;;34.78;22.60;;;1.70;99.90;;;;;;5074139;28;20028;-60
2023/01/28 11:26:06;;;;;;;34.97;20.45;;;1.90;99.90;;;;;;5073339;28;20047;-61
2023/01/28 11:28:40;;;;;;;30.80;18.90;;;2.10;99.90;;;;;;5073814;28;20112;-60
2023/01/28 11:31:07;;;;;;;34.05;20.10;;;2.00;99.90;;;;;;5074387;28;20044;-61
2023/01/28 11:33:57;;;;;;;43.88;23.80;;;1.90;99.90;;;;;;5074627;28;20031;-61
2023/01/28 11:36:28;;;;;;;36.85;21.75;;;1.90;99.90;;;;;;5073014;28;20385;-61
2023/01/28 11:38:59;;;;;;;38.10;20.98;;;2.20;99.90;;;;;;5074170;28;20052;-61
2023/01/28 11:41:29;;;;;;;26.45;16.90;;;2.40;99.90;;;;;;5073897;28;20368;-60
2023/01/28 11:43:57;;;;;;;38.15;19.88;;;2.20;99.90;;;;;;5058427;28;20036;-61
2023/01/28 11:46:37;;;;;;;33.60;20.15;;;2.20;99.90;;;;;;5052857;28;20061;-60
2023/01/28 11:49:15;;;;;;;24.58;16.08;;;2.20;99.90;;;;;;5055605;28;20118;-60
2023/01/28 11:52:02;;;;;;;29.50;17.05;;;2.20;99.90;;;;;;5054080;28;20021;-61
2023/01/28 11:54:41;;;;;;;28.48;18.38;;;2.00;99.90;;;;;;5072849;28;20063;-61
2023/01/28 11:57:26;;;;;;;32.13;18.20;;;1.80;99.90;;;;;;5073834;28;20012;-61
2023/01/28 12:00:20;;;;;;;29.30;18.10;;;1.80;99.90;;;;;;5052820;28;20025;-61
2023/01/28 12:03:44;;;;;;;26.58;16.35;;;2.00;99.90;;;;;;5059871;28;20143;-60
2023/01/28 12:06:38;;;;;;;25.73;15.80;;;1.80;99.90;;;;;;5073229;28;20037;-61
2023/01/28 12:09:19;;;;;;;32.03;16.65;;;1.80;99.90;;;;;;5072557;28;20514;-61
2023/01/28 12:12:12;;;;;;;29.52;17.08;;;1.90;99.90;;;;;;5073223;28;20040;-60
2023/01/28 12:14:56;;;;;;;32.97;19.70;;;1.90;99.90;;;;;;5053746;28;20427;-61
2023/01/28 12:17:46;;;;;;;50.97;26.88;;;1.90;99.90;;;;;;5051453;28;20113;-61
2023/01/28 12:20:18;;;;;;;32.78;17.70;;;1.90;99.90;;;;;;5063457;28;20044;-61
2023/01/28 12:23:07;;;;;;;24.73;15.55;;;1.70;99.90;;;;;;5062503;28;20111;-61
2023/01/28 12:26:02;;;;;;;28.60;17.45;;;1.50;99.90;;;;;;5067935;28;20040;-61
2023/01/28 12:28:36;;;;;;;24.90;15.35;;;1.40;99.90;;;;;;5061945;28;20094;-61
2023/01/28 12:31:38;;;;;;;28.20;15.70;;;1.60;99.90;;;;;;5081172;28;20036;-61
2023/01/28 12:34:18;;;;;;;25.48;15.93;;;1.50;99.90;;;;;;5065955;28;20115;-60
2023/01/28 12:37:13;;;;;;;30.10;17.17;;;1.70;99.90;;;;;;5076139;28;20409;-61
2023/01/28 12:40:12;;;;;;;29.33;17.58;;;1.60;99.90;;;;;;5065942;28;20020;-57
2023/01/28 12:42:56;;;;;;;27.63;14.95;;;1.60;99.90;;;;;;5067847;28;20048;-61
2023/01/28 12:45:45;;;;;;;24.35;15.73;;;1.80;99.90;;;;;;5076593;28;20040;-60
2023/01/28 12:48:14;;;;;;;32.78;17.48;;;1.90;99.90;;;;;;5077216;28;20020;-61
2023/01/28 12:50:48;;;;;;;27.25;16.92;;;1.70;99.90;;;;;;5076749;28;20476;-61
2023/01/28 12:53:30;;;;;;;29.05;16.10;;;1.80;99.90;;;;;;5068645;28;20032;-61
2023/01/28 12:56:05;;;;;;;27.67;16.13;;;1.60;99.90;;;;;;5063940;28;20043;-61
2023/01/28 12:58:53;;;;;;;26.63;16.52;;;1.70;99.90;;;;;;5072401;28;20093;-61
2023/01/28 13:01:28;;;;;;;29.05;14.85;;;1.80;99.90;;;;;;5066699;28;20111;-61
2023/01/28 13:04:08;;;;;;;27.73;16.65;;;1.60;99.90;;;;;;5062743;28;20450;-61
2023/01/28 13:06:45;;;;;;;28.77;16.40;;;1.50;99.90;;;;;;5074338;28;20371;-61
2023/01/28 13:09:18;;;;;;;31.45;18.30;;;1.40;99.90;;;;;;5079944;28;20039;-61
2023/01/28 13:11:45;;;;;;;30.53;19.47;;;1.20;99.90;;;;;;5063526;28;20987;-61
2023/01/28 13:14:12;;;;;;;34.60;17.27;;;1.20;99.90;;;;;;5075471;28;20037;-60
2023/01/28 13:16:38;;;;;;;43.10;23.25;;;1.10;99.90;;;;;;5075318;28;20451;-61
2023/01/28 13:19:07;;;;;;;66.75;33.05;;;1.20;99.90;;;;;;5072006;28;21579;-60
2023/01/28 13:21:35;;;;;;;29.67;17.08;;;1.20;99.90;;;;;;5067325;28;20379;-61
2023/01/28 13:24:00;;;;;;;26.00;15.65;;;1.20;99.90;;;;;;5076091;28;20064;-61
2023/01/28 13:26:35;;;;;;;38.50;19.77;;;1.20;99.90;;;;;;5074620;28;22662;-60
2023/01/28 13:29:23;;;;;;;27.05;15.80;;;1.20;99.90;;;;;;5061907;28;20440;-61
2023/01/28 13:31:51;;;;;;;34.75;19.30;;;1.20;99.90;;;;;;5081345;28;20386;-60
2023/01/28 13:34:35;;;;;;;31.30;18.85;;;1.30;99.90;;;;;;5059581;28;20138;-61